sensor_id;sensor_type;location;lat;lon;timestamp;P1;durP1;ratioP1;P2;durP2;ratioP2
47804;SDS011;33568;45.286;9.900;2023-02-18T00:01:20;31.08;;;22.83;;
47804;SDS011;33568;45.286;9.900;2023-02-18T00:03:48;29.58;;;23.38;;
47804;SDS011;33568;45.286;9.900;2023-02-18T00:06:16;30.05;;;23.50;;
47804;SDS011;33568;45.286;9.900;2023-02-18T00:08:44;29.08;;;24.88;;
47804;SDS011;33568;45.286;9.900;2023-02-18T00:11:12;30.67;;;23.77;;
47804;SDS011;33568;45.286;9.900;2023-02-18T00:13:38;27.58;;;22.45;;
47804;SDS011;33568;45.286;9.900;2023-02-18T00:20:59;26.98;;;21.83;;
47804;SDS011;33568;45.286;9.900;2023-02-18T00:23:27;29.15;;;22.25;;
47804;SDS011;33568;45.286;9.900;2023-02-18T00:26:04;28.77;;;22.63;;
47804;SDS011;33568;45.286;9.900;2023-02-18T00:28:38;27.15;;;21.88;;
47804;SDS011;33568;45.286;9.900;2023-02-18T00:31:09;33.88;;;24.42;;
47804;SDS011;33568;45.286;9.900;2023-02-18T00:33:40;27.75;;;22.33;;
47804;SDS011;33568;45.286;9.900;2023-02-18T00:36:08;29.75;;;23.27;;
47804;SDS011;33568;45.286;9.900;2023-02-18T00:38:36;28.05;;;22.35;;
47804;SDS011;33568;45.286;9.900;2023-02-18T00:41:03;28.55;;;22.27;;
47804;SDS011;33568;45.286;9.900;2023-02-18T00:43:33;28.35;;;22.55;;
47804;SDS011;33568;45.286;9.900;2023-02-18T00:45:59;25.73;;;22.50;;
47804;SDS011;33568;45.286;9.900;2023-02-18T00:48:26;25.60;;;22.60;;
47804;SDS011;33568;45.286;9.900;2023-02-18T00:53:22;30.05;;;22.52;;
47804;SDS011;33568;45.286;9.900;2023-02-18T00:55:49;27.58;;;23.98;;
47804;SDS011;33568;45.286;9.900;2023-02-18T00:58:16;30.02;;;24.08;;
47804;SDS011;33568;45.286;9.900;2023-02-18T01:03:09;30.50;;;23.80;;
47804;SDS011;33568;45.286;9.900;2023-02-18T01:05:36;29.52;;;22.27;;
47804;SDS011;33568;45.286;9.900;2023-02-18T01:08:06;28.40;;;23.77;;
47804;SDS011;33568;45.286;9.900;2023-02-18T01:10:33;31.95;;;24.23;;
47804;SDS011;33568;45.286;9.900;2023-02-18T01:13:04;28.13;;;24.30;;
47804;SDS011;33568;45.286;9.900;2023-02-18T01:15:30;29.60;;;24.60;;
47804;SDS011;33568;45.286;9.900;2023-02-18T01:17:57;35.70;;;24.35;;
47804;SDS011;33568;45.286;9.900;2023-02-18T01:20:23;32.70;;;24.48;;
47804;SDS011;33568;45.286;9.900;2023-02-18T01:22:50;30.55;;;26.23;;
47804;SDS011;33568;45.286;9.900;2023-02-18T01:25:17;34.60;;;27.08;;
47804;SDS011;33568;45.286;9.900;2023-02-18T01:30:11;43.20;;;29.15;;
47804;SDS011;33568;45.286;9.900;2023-02-18T01:32:40;36.53;;;29.05;;
47804;SDS011;33568;45.286;9.900;2023-02-18T01:35:09;31.75;;;25.70;;
47804;SDS011;33568;45.286;9.900;2023-02-18T01:37:37;28.98;;;25.48;;
47804;SDS011;33568;45.286;9.900;2023-02-18T01:40:05;30.30;;;25.25;;
47804;SDS011;33568;45.286;9.900;2023-02-18T01:42:32;30.80;;;26.65;;
47804;SDS011;33568;45.286;9.900;2023-02-18T01:48:01;34.63;;;27.25;;
47804;SDS011;33568;45.286;9.900;2023-02-18T01:50:32;32.75;;;27.35;;
47804;SDS011;33568;45.286;9.900;2023-02-18T01:53:01;37.42;;;26.67;;
47804;SDS011;33568;45.286;9.900;2023-02-18T01:55:30;28.80;;;24.85;;
47804;SDS011;33568;45.286;9.900;2023-02-18T01:57:58;28.88;;;24.95;;
47804;SDS011;33568;45.286;9.900;2023-02-18T02:00:25;28.42;;;25.23;;
47804;SDS011;33568;45.286;9.900;2023-02-18T02:02:52;34.60;;;25.67;;
47804;SDS011;33568;45.286;9.900;2023-02-18T02:05:20;34.53;;;25.95;;
47804;SDS011;33568;45.286;9.900;2023-02-18T02:07:47;32.70;;;26.42;;
47804;SDS011;33568;45.286;9.900;2023-02-18T02:10:17;30.25;;;25.50;;
47804;SDS011;33568;45.286;9.900;2023-02-18T02:13:28;29.67;;;24.95;;
47804;SDS011;33568;45.286;9.900;2023-02-18T02:30:32;34.47;;;26.30;;
47804;SDS011;33568;45.286;9.900;2023-02-18T02:38:41;31.60;;;26.10;;
47804;SDS011;33568;45.286;9.900;2023-02-18T02:44:20;34.00;;;27.60;;
47804;SDS011;33568;45.286;9.900;2023-02-18T02:47:10;39.05;;;28.90;;
47804;SDS011;33568;45.286;9.900;2023-02-18T02:49:49;36.08;;;28.38;;
47804;SDS011;33568;45.286;9.900;2023-02-18T02:52:32;31.92;;;25.55;;
47804;SDS011;33568;45.286;9.900;2023-02-18T02:55:07;34.35;;;27.38;;
47804;SDS011;33568;45.286;9.900;2023-02-18T02:57:45;35.15;;;29.30;;
47804;SDS011;33568;45.286;9.900;2023-02-18T03:00:20;33.42;;;26.95;;
47804;SDS011;33568;45.286;9.900;2023-02-18T03:03:00;32.60;;;27.23;;
47804;SDS011;33568;45.286;9.900;2023-02-18T03:08:37;27.10;;;22.40;;
47804;SDS011;33568;45.286;9.900;2023-02-18T03:11:32;27.85;;;23.77;;
47804;SDS011;33568;45.286;9.900;2023-02-18T03:14:12;34.38;;;25.20;;
47804;SDS011;33568;45.286;9.900;2023-02-18T03:17:02;47.90;;;28.58;;
47804;SDS011;33568;45.286;9.900;2023-02-18T03:20:22;43.17;;;28.58;;
47804;SDS011;33568;45.286;9.900;2023-02-18T03:22:59;49.10;;;28.08;;
47804;SDS011;33568;45.286;9.900;2023-02-18T03:25:32;52.50;;;28.45;;
47804;SDS011;33568;45.286;9.900;2023-02-18T03:28:06;45.00;;;31.17;;
47804;SDS011;33568;45.286;9.900;2023-02-18T03:33:17;47.08;;;31.40;;
47804;SDS011;33568;45.286;9.900;2023-02-18T03:35:49;46.80;;;30.10;;
47804;SDS011;33568;45.286;9.900;2023-02-18T03:38:28;43.90;;;31.70;;
47804;SDS011;33568;45.286;9.900;2023-02-18T03:41:17;40.97;;;29.08;;
47804;SDS011;33568;45.286;9.900;2023-02-18T03:43:50;41.58;;;30.65;;
47804;SDS011;33568;45.286;9.900;2023-02-18T03:46:27;43.70;;;30.08;;
47804;SDS011;33568;45.286;9.900;2023-02-18T03:48:54;37.70;;;29.35;;
47804;SDS011;33568;45.286;9.900;2023-02-18T03:53:47;36.13;;;29.17;;
47804;SDS011;33568;45.286;9.900;2023-02-18T03:58:40;40.60;;;27.77;;
47804;SDS011;33568;45.286;9.900;2023-02-18T04:01:07;44.15;;;29.33;;
47804;SDS011;33568;45.286;9.900;2023-02-18T04:03:33;42.53;;;30.98;;
47804;SDS011;33568;45.286;9.900;2023-02-18T04:06:00;45.75;;;29.17;;
47804;SDS011;33568;45.286;9.900;2023-02-18T04:08:26;37.15;;;28.23;;
47804;SDS011;33568;45.286;9.900;2023-02-18T04:13:19;44.30;;;30.95;;
47804;SDS011;33568;45.286;9.900;2023-02-18T04:15:47;44.35;;;28.45;;
47804;SDS011;33568;45.286;9.900;2023-02-18T04:18:14;39.10;;;28.75;;
47804;SDS011;33568;45.286;9.900;2023-02-18T04:20:41;41.22;;;28.27;;
47804;SDS011;33568;45.286;9.900;2023-02-18T04:23:07;44.55;;;31.92;;
47804;SDS011;33568;45.286;9.900;2023-02-18T04:25:34;45.20;;;29.95;;
47804;SDS011;33568;45.286;9.900;2023-02-18T04:28:02;44.67;;;30.67;;
47804;SDS011;33568;45.286;9.900;2023-02-18T04:30:29;38.47;;;28.27;;
47804;SDS011;33568;45.286;9.900;2023-02-18T04:32:56;40.83;;;27.83;;
47804;SDS011;33568;45.286;9.900;2023-02-18T04:35:22;36.03;;;27.20;;
47804;SDS011;33568;45.286;9.900;2023-02-18T04:40:15;42.25;;;28.80;;
47804;SDS011;33568;45.286;9.900;2023-02-18T04:45:08;42.08;;;28.83;;
47804;SDS011;33568;45.286;9.900;2023-02-18T04:47:34;38.92;;;27.85;;
47804;SDS011;33568;45.286;9.900;2023-02-18T04:50:01;42.05;;;30.70;;
47804;SDS011;33568;45.286;9.900;2023-02-18T04:52:27;40.05;;;29.92;;
47804;SDS011;33568;45.286;9.900;2023-02-18T04:54:54;46.42;;;30.80;;
47804;SDS011;33568;45.286;9.900;2023-02-18T04:57:20;39.33;;;29.08;;
47804;SDS011;33568;45.286;9.900;2023-02-18T05:02:13;45.25;;;29.52;;
47804;SDS011;33568;45.286;9.900;2023-02-18T05:04:39;38.15;;;30.05;;
47804;SDS011;33568;45.286;9.900;2023-02-18T05:07:06;43.22;;;31.58;;
47804;SDS011;33568;45.286;9.900;2023-02-18T05:09:32;44.40;;;29.50;;
47804;SDS011;33568;45.286;9.900;2023-02-18T05:11:58;41.80;;;29.52;;
47804;SDS011;33568;45.286;9.900;2023-02-18T05:14:25;48.80;;;31.75;;
47804;SDS011;33568;45.286;9.900;2023-02-18T05:16:51;46.35;;;33.63;;
47804;SDS011;33568;45.286;9.900;2023-02-18T05:19:18;43.08;;;30.63;;
47804;SDS011;33568;45.286;9.900;2023-02-18T05:21:44;39.83;;;29.27;;
47804;SDS011;33568;45.286;9.900;2023-02-18T05:24:10;40.30;;;27.55;;
47804;SDS011;33568;45.286;9.900;2023-02-18T05:26:37;35.00;;;29.30;;
47804;SDS011;33568;45.286;9.900;2023-02-18T05:29:03;39.08;;;29.80;;
47804;SDS011;33568;45.286;9.900;2023-02-18T05:31:30;37.25;;;27.58;;
47804;SDS011;33568;45.286;9.900;2023-02-18T05:36:23;34.00;;;25.88;;
47804;SDS011;33568;45.286;9.900;2023-02-18T05:38:50;39.17;;;27.45;;
47804;SDS011;33568;45.286;9.900;2023-02-18T05:43:42;39.50;;;25.10;;
47804;SDS011;33568;45.286;9.900;2023-02-18T05:46:27;36.90;;;24.90;;
47804;SDS011;33568;45.286;9.900;2023-02-18T05:48:54;35.90;;;24.98;;
47804;SDS011;33568;45.286;9.900;2023-02-18T05:53:46;29.02;;;22.83;;
47804;SDS011;33568;45.286;9.900;2023-02-18T05:56:13;37.28;;;24.00;;
47804;SDS011;33568;45.286;9.900;2023-02-18T06:01:06;53.97;;;27.92;;
47804;SDS011;33568;45.286;9.900;2023-02-18T06:03:32;39.70;;;26.02;;
47804;SDS011;33568;45.286;9.900;2023-02-18T06:05:59;40.60;;;26.13;;
47804;SDS011;33568;45.286;9.900;2023-02-18T06:08:25;40.03;;;27.67;;
47804;SDS011;33568;45.286;9.900;2023-02-18T06:13:18;42.15;;;29.70;;
47804;SDS011;33568;45.286;9.900;2023-02-18T06:15:44;46.15;;;28.65;;
47804;SDS011;33568;45.286;9.900;2023-02-18T06:20:38;97.15;;;46.75;;
47804;SDS011;33568;45.286;9.900;2023-02-18T06:23:06;202.25;;;40.30;;
47804;SDS011;33568;45.286;9.900;2023-02-18T06:25:32;131.07;;;31.98;;
47804;SDS011;33568;45.286;9.900;2023-02-18T06:27:59;148.73;;;30.48;;
47804;SDS011;33568;45.286;9.900;2023-02-18T06:30:25;86.05;;;33.28;;
47804;SDS011;33568;45.286;9.900;2023-02-18T06:32:52;59.10;;;33.08;;
47804;SDS011;33568;45.286;9.900;2023-02-18T06:35:18;68.28;;;31.65;;
47804;SDS011;33568;45.286;9.900;2023-02-18T06:37:44;60.40;;;33.13;;
47804;SDS011;33568;45.286;9.900;2023-02-18T06:40:11;99.05;;;45.30;;
47804;SDS011;33568;45.286;9.900;2023-02-18T06:42:38;73.38;;;44.78;;
47804;SDS011;33568;45.286;9.900;2023-02-18T06:47:31;43.93;;;32.87;;
47804;SDS011;33568;45.286;9.900;2023-02-18T06:49:58;37.67;;;29.58;;
47804;SDS011;33568;45.286;9.900;2023-02-18T06:52:25;46.20;;;30.10;;
47804;SDS011;33568;45.286;9.900;2023-02-18T06:57:17;39.03;;;28.42;;
47804;SDS011;33568;45.286;9.900;2023-02-18T06:59:44;43.15;;;30.02;;
47804;SDS011;33568;45.286;9.900;2023-02-18T07:02:13;43.10;;;29.10;;
47804;SDS011;33568;45.286;9.900;2023-02-18T07:04:40;43.38;;;30.15;;
47804;SDS011;33568;45.286;9.900;2023-02-18T07:07:06;43.88;;;35.00;;
47804;SDS011;33568;45.286;9.900;2023-02-18T07:09:33;49.42;;;37.65;;
47804;SDS011;33568;45.286;9.900;2023-02-18T07:11:59;46.20;;;32.53;;
47804;SDS011;33568;45.286;9.900;2023-02-18T07:14:25;41.08;;;32.88;;
47804;SDS011;33568;45.286;9.900;2023-02-18T07:16:53;41.88;;;29.10;;
47804;SDS011;33568;45.286;9.900;2023-02-18T07:21:46;36.03;;;24.20;;
47804;SDS011;33568;45.286;9.900;2023-02-18T07:24:12;58.30;;;29.52;;
47804;SDS011;33568;45.286;9.900;2023-02-18T07:26:38;62.00;;;26.38;;
47804;SDS011;33568;45.286;9.900;2023-02-18T07:29:05;42.08;;;27.27;;
47804;SDS011;33568;45.286;9.900;2023-02-18T07:31:31;42.10;;;27.27;;
47804;SDS011;33568;45.286;9.900;2023-02-18T07:33:58;43.58;;;26.90;;
47804;SDS011;33568;45.286;9.900;2023-02-18T07:36:24;31.77;;;25.83;;
47804;SDS011;33568;45.286;9.900;2023-02-18T07:38:51;26.10;;;22.92;;
47804;SDS011;33568;45.286;9.900;2023-02-18T07:41:18;27.17;;;22.20;;
47804;SDS011;33568;45.286;9.900;2023-02-18T07:43:46;27.80;;;23.27;;
47804;SDS011;33568;45.286;9.900;2023-02-18T07:46:13;24.08;;;21.52;;
47804;SDS011;33568;45.286;9.900;2023-02-18T07:51:06;22.85;;;19.42;;
47804;SDS011;33568;45.286;9.900;2023-02-18T07:53:35;23.55;;;21.00;;
47804;SDS011;33568;45.286;9.900;2023-02-18T07:56:02;26.88;;;21.08;;
47804;SDS011;33568;45.286;9.900;2023-02-18T07:58:30;25.10;;;21.42;;
47804;SDS011;33568;45.286;9.900;2023-02-18T08:00:59;28.05;;;23.80;;
47804;SDS011;33568;45.286;9.900;2023-02-18T08:03:26;28.45;;;25.35;;
47804;SDS011;33568;45.286;9.900;2023-02-18T08:05:55;27.67;;;24.38;;
47804;SDS011;33568;45.286;9.900;2023-02-18T08:08:26;29.92;;;24.05;;
47804;SDS011;33568;45.286;9.900;2023-02-18T08:10:55;37.50;;;27.88;;
47804;SDS011;33568;45.286;9.900;2023-02-18T08:13:23;43.47;;;32.25;;
47804;SDS011;33568;45.286;9.900;2023-02-18T08:18:19;27.45;;;24.25;;
47804;SDS011;33568;45.286;9.900;2023-02-18T08:20:47;33.65;;;24.08;;
47804;SDS011;33568;45.286;9.900;2023-02-18T08:23:17;33.80;;;25.58;;
47804;SDS011;33568;45.286;9.900;2023-02-18T08:25:50;27.45;;;24.23;;
47804;SDS011;33568;45.286;9.900;2023-02-18T08:28:19;30.35;;;25.75;;
47804;SDS011;33568;45.286;9.900;2023-02-18T08:30:47;29.42;;;25.75;;
47804;SDS011;33568;45.286;9.900;2023-02-18T08:33:15;30.25;;;26.02;;
47804;SDS011;33568;45.286;9.900;2023-02-18T08:35:43;32.13;;;26.27;;
47804;SDS011;33568;45.286;9.900;2023-02-18T08:38:10;33.60;;;29.70;;
47804;SDS011;33568;45.286;9.900;2023-02-18T08:40:37;36.10;;;31.35;;
47804;SDS011;33568;45.286;9.900;2023-02-18T08:43:03;38.58;;;34.22;;
47804;SDS011;33568;45.286;9.900;2023-02-18T08:45:29;45.70;;;33.72;;
47804;SDS011;33568;45.286;9.900;2023-02-18T08:47:56;40.10;;;32.83;;
47804;SDS011;33568;45.286;9.900;2023-02-18T08:50:22;37.63;;;33.53;;
47804;SDS011;33568;45.286;9.900;2023-02-18T08:52:51;36.85;;;32.85;;
47804;SDS011;33568;45.286;9.900;2023-02-18T08:55:18;35.55;;;31.88;;
47804;SDS011;33568;45.286;9.900;2023-02-18T08:57:47;38.47;;;34.42;;
47804;SDS011;33568;45.286;9.900;2023-02-18T09:00:15;38.97;;;34.90;;
47804;SDS011;33568;45.286;9.900;2023-02-18T09:02:42;44.25;;;36.72;;
47804;SDS011;33568;45.286;9.900;2023-02-18T09:05:09;43.05;;;36.75;;
47804;SDS011;33568;45.286;9.900;2023-02-18T09:07:36;47.08;;;39.35;;
47804;SDS011;33568;45.286;9.900;2023-02-18T09:12:29;50.13;;;44.65;;
47804;SDS011;33568;45.286;9.900;2023-02-18T09:14:55;42.65;;;38.25;;
47804;SDS011;33568;45.286;9.900;2023-02-18T09:19:48;46.17;;;39.60;;
47804;SDS011;33568;45.286;9.900;2023-02-18T09:22:14;50.10;;;44.30;;
47804;SDS011;33568;45.286;9.900;2023-02-18T09:27:07;40.83;;;36.42;;
47804;SDS011;33568;45.286;9.900;2023-02-18T09:32:02;39.63;;;35.35;;
47804;SDS011;33568;45.286;9.900;2023-02-18T09:34:29;37.83;;;32.28;;
47804;SDS011;33568;45.286;9.900;2023-02-18T09:39:22;50.15;;;31.20;;
47804;SDS011;33568;45.286;9.900;2023-02-18T09:46:49;34.30;;;29.55;;
47804;SDS011;33568;45.286;9.900;2023-02-18T09:49:23;32.65;;;29.05;;
47804;SDS011;33568;45.286;9.900;2023-02-18T09:51:54;33.22;;;29.13;;
47804;SDS011;33568;45.286;9.900;2023-02-18T09:54:22;34.65;;;28.50;;
47804;SDS011;33568;45.286;9.900;2023-02-18T09:56:48;30.70;;;27.63;;
47804;SDS011;33568;45.286;9.900;2023-02-18T09:59:17;29.58;;;26.48;;
47804;SDS011;33568;45.286;9.900;2023-02-18T10:01:49;36.40;;;29.15;;
47804;SDS011;33568;45.286;9.900;2023-02-18T10:04:39;38.83;;;28.20;;
47804;SDS011;33568;45.286;9.900;2023-02-18T10:07:07;30.02;;;25.10;;
47804;SDS011;33568;45.286;9.900;2023-02-18T10:09:44;28.77;;;25.92;;
47804;SDS011;33568;45.286;9.900;2023-02-18T10:12:13;27.33;;;24.33;;
47804;SDS011;33568;45.286;9.900;2023-02-18T10:14:55;23.73;;;21.42;;
47804;SDS011;33568;45.286;9.900;2023-02-18T10:17:24;27.15;;;22.33;;
47804;SDS011;33568;45.286;9.900;2023-02-18T10:19:53;23.85;;;21.40;;
47804;SDS011;33568;45.286;9.900;2023-02-18T10:22:21;30.60;;;22.85;;
47804;SDS011;33568;45.286;9.900;2023-02-18T10:24:51;25.25;;;19.42;;
47804;SDS011;33568;45.286;9.900;2023-02-18T10:27:26;22.17;;;19.88;;
47804;SDS011;33568;45.286;9.900;2023-02-18T10:30:20;21.77;;;19.50;;
47804;SDS011;33568;45.286;9.900;2023-02-18T10:32:50;21.27;;;16.90;;
47804;SDS011;33568;45.286;9.900;2023-02-18T10:43:30;16.83;;;15.07;;
47804;SDS011;33568;45.286;9.900;2023-02-18T10:48:53;20.15;;;16.83;;
47804;SDS011;33568;45.286;9.900;2023-02-18T10:51:49;16.33;;;14.45;;
47804;SDS011;33568;45.286;9.900;2023-02-18T10:54:23;18.55;;;15.73;;
47804;SDS011;33568;45.286;9.900;2023-02-18T10:56:51;17.08;;;15.27;;
47804;SDS011;33568;45.286;9.900;2023-02-18T10:59:24;16.85;;;14.60;;
47804;SDS011;33568;45.286;9.900;2023-02-18T11:01:56;14.90;;;13.25;;
47804;SDS011;33568;45.286;9.900;2023-02-18T11:04:26;23.00;;;12.65;;
47804;SDS011;33568;45.286;9.900;2023-02-18T11:07:03;13.98;;;12.50;;
47804;SDS011;33568;45.286;9.900;2023-02-18T11:14:40;16.33;;;12.82;;
47804;SDS011;33568;45.286;9.900;2023-02-18T11:17:15;16.40;;;13.20;;
47804;SDS011;33568;45.286;9.900;2023-02-18T11:19:50;17.80;;;12.98;;
47804;SDS011;33568;45.286;9.900;2023-02-18T11:22:20;14.18;;;12.77;;
47804;SDS011;33568;45.286;9.900;2023-02-18T11:24:52;15.15;;;12.38;;
47804;SDS011;33568;45.286;9.900;2023-02-18T11:30:03;13.80;;;11.95;;
47804;SDS011;33568;45.286;9.900;2023-02-18T11:32:33;14.00;;;12.68;;
47804;SDS011;33568;45.286;9.900;2023-02-18T11:35:03;15.88;;;12.88;;
47804;SDS011;33568;45.286;9.900;2023-02-18T11:37:31;16.02;;;13.18;;
47804;SDS011;33568;45.286;9.900;2023-02-18T11:40:00;13.93;;;12.52;;
47804;SDS011;33568;45.286;9.900;2023-02-18T11:42:27;14.23;;;12.77;;
47804;SDS011;33568;45.286;9.900;2023-02-18T11:44:54;17.95;;;14.18;;
47804;SDS011;33568;45.286;9.900;2023-02-18T11:47:24;17.42;;;14.82;;
47804;SDS011;33568;45.286;9.900;2023-02-18T11:52:36;15.13;;;13.63;;
47804;SDS011;33568;45.286;9.900;2023-02-18T11:55:13;19.73;;;13.70;;
47804;SDS011;33568;45.286;9.900;2023-02-18T11:58:10;14.43;;;12.73;;
47804;SDS011;33568;45.286;9.900;2023-02-18T12:00:43;12.18;;;11.02;;
47804;SDS011;33568;45.286;9.900;2023-02-18T12:05:47;12.32;;;10.98;;
47804;SDS011;33568;45.286;9.900;2023-02-18T12:08:18;14.00;;;11.55;;
47804;SDS011;33568;45.286;9.900;2023-02-18T12:10:49;14.73;;;13.10;;
47804;SDS011;33568;45.286;9.900;2023-02-18T12:24:25;14.45;;;12.18;;
47804;SDS011;33568;45.286;9.900;2023-02-18T12:28:01;14.73;;;12.80;;
47804;SDS011;33568;45.286;9.900;2023-02-18T12:35:52;14.02;;;12.18;;
47804;SDS011;33568;45.286;9.900;2023-02-18T12:42:15;14.40;;;12.85;;
47804;SDS011;33568;45.286;9.900;2023-02-18T12:44:33;19.17;;;13.35;;
47804;SDS011;33568;45.286;9.900;2023-02-18T13:01:11;16.45;;;12.88;;
47804;SDS011;33568;45.286;9.900;2023-02-18T13:03:53;17.17;;;15.30;;
47804;SDS011;33568;45.286;9.900;2023-02-18T13:15:15;15.55;;;13.93;;
47804;SDS011;33568;45.286;9.900;2023-02-18T13:17:46;16.95;;;13.18;;
47804;SDS011;33568;45.286;9.900;2023-02-18T13:20:22;17.63;;;13.85;;
47804;SDS011;33568;45.286;9.900;2023-02-18T13:22:59;15.52;;;13.93;;
47804;SDS011;33568;45.286;9.900;2023-02-18T13:25:27;15.25;;;13.65;;
47804;SDS011;33568;45.286;9.900;2023-02-18T13:28:03;20.13;;;13.10;;
47804;SDS011;33568;45.286;9.900;2023-02-18T13:30:45;15.85;;;12.48;;
47804;SDS011;33568;45.286;9.900;2023-02-18T13:33:37;15.25;;;13.70;;
47804;SDS011;33568;45.286;9.900;2023-02-18T13:39:18;14.93;;;13.20;;
47804;SDS011;33568;45.286;9.900;2023-02-18T13:41:49;19.27;;;14.38;;
47804;SDS011;33568;45.286;9.900;2023-02-18T13:46:52;19.98;;;13.85;;
47804;SDS011;33568;45.286;9.900;2023-02-18T13:49:22;17.13;;;13.13;;
47804;SDS011;33568;45.286;9.900;2023-02-18T13:51:58;13.40;;;12.00;;
47804;SDS011;33568;45.286;9.900;2023-02-18T13:54:27;13.57;;;12.00;;
47804;SDS011;33568;45.286;9.900;2023-02-18T13:57:12;13.15;;;11.60;;
47804;SDS011;33568;45.286;9.900;2023-02-18T13:59:46;14.25;;;11.45;;
47804;SDS011;33568;45.286;9.900;2023-02-18T14:12:42;17.15;;;12.65;;
47804;SDS011;33568;45.286;9.900;2023-02-18T14:17:48;13.48;;;11.65;;
47804;SDS011;33568;45.286;9.900;2023-02-18T14:20:31;14.13;;;12.52;;
47804;SDS011;33568;45.286;9.900;2023-02-18T14:23:11;19.85;;;13.80;;
47804;SDS011;33568;45.286;9.900;2023-02-18T14:33:43;14.70;;;11.43;;
47804;SDS011;33568;45.286;9.900;2023-02-18T14:36:41;15.20;;;11.27;;
47804;SDS011;33568;45.286;9.900;2023-02-18T14:39:27;14.20;;;10.65;;
47804;SDS011;33568;45.286;9.900;2023-02-18T14:52:58;14.88;;;10.93;;
47804;SDS011;33568;45.286;9.900;2023-02-18T14:55:30;14.98;;;10.00;;
47804;SDS011;33568;45.286;9.900;2023-02-18T15:00:55;11.45;;;10.30;;
47804;SDS011;33568;45.286;9.900;2023-02-18T15:03:22;15.60;;;11.13;;
47804;SDS011;33568;45.286;9.900;2023-02-18T15:05:52;13.25;;;10.63;;
47804;SDS011;33568;45.286;9.900;2023-02-18T15:08:19;12.32;;;10.50;;
47804;SDS011;33568;45.286;9.900;2023-02-18T15:13:23;12.98;;;11.60;;
47804;SDS011;33568;45.286;9.900;2023-02-18T15:15:56;15.75;;;11.32;;
47804;SDS011;33568;45.286;9.900;2023-02-18T15:26:50;12.95;;;11.57;;
47804;SDS011;33568;45.286;9.900;2023-02-18T15:29:19;12.73;;;11.40;;
47804;SDS011;33568;45.286;9.900;2023-02-18T15:31:58;14.80;;;11.85;;
47804;SDS011;33568;45.286;9.900;2023-02-18T15:36:55;15.32;;;13.43;;
47804;SDS011;33568;45.286;9.900;2023-02-18T15:39:23;16.17;;;12.95;;
47804;SDS011;33568;45.286;9.900;2023-02-18T15:41:51;12.63;;;10.77;;
47804;SDS011;33568;45.286;9.900;2023-02-18T15:44:23;15.10;;;11.15;;
47804;SDS011;33568;45.286;9.900;2023-02-18T15:46:52;17.85;;;12.25;;
47804;SDS011;33568;45.286;9.900;2023-02-18T15:49:20;16.20;;;11.63;;
47804;SDS011;33568;45.286;9.900;2023-02-18T15:51:48;16.52;;;12.55;;
47804;SDS011;33568;45.286;9.900;2023-02-18T15:54:17;15.77;;;13.25;;
47804;SDS011;33568;45.286;9.900;2023-02-18T15:56:48;12.98;;;11.60;;
47804;SDS011;33568;45.286;9.900;2023-02-18T15:59:34;17.85;;;12.85;;
47804;SDS011;33568;45.286;9.900;2023-02-18T16:04:36;16.00;;;12.40;;
47804;SDS011;33568;45.286;9.900;2023-02-18T16:07:48;13.45;;;11.93;;
47804;SDS011;33568;45.286;9.900;2023-02-18T16:10:13;17.40;;;13.63;;
47804;SDS011;33568;45.286;9.900;2023-02-18T16:12:51;16.27;;;12.30;;
47804;SDS011;33568;45.286;9.900;2023-02-18T16:15:26;18.00;;;12.63;;
47804;SDS011;33568;45.286;9.900;2023-02-18T16:17:56;20.88;;;14.43;;
47804;SDS011;33568;45.286;9.900;2023-02-18T16:20:29;19.85;;;15.30;;
47804;SDS011;33568;45.286;9.900;2023-02-18T16:23:11;16.60;;;12.68;;
47804;SDS011;33568;45.286;9.900;2023-02-18T16:28:12;13.13;;;7.40;;
47804;SDS011;33568;45.286;9.900;2023-02-18T16:30:41;8.98;;;6.72;;
47804;SDS011;33568;45.286;9.900;2023-02-18T16:33:10;13.15;;;7.97;;
47804;SDS011;33568;45.286;9.900;2023-02-18T16:35:37;18.77;;;12.77;;
47804;SDS011;33568;45.286;9.900;2023-02-18T16:38:04;17.98;;;11.23;;
47804;SDS011;33568;45.286;9.900;2023-02-18T16:40:35;27.75;;;22.95;;
47804;SDS011;33568;45.286;9.900;2023-02-18T16:43:14;37.05;;;29.25;;
47804;SDS011;33568;45.286;9.900;2023-02-18T16:50:48;18.38;;;14.23;;
47804;SDS011;33568;45.286;9.900;2023-02-18T16:53:16;19.10;;;15.00;;
47804;SDS011;33568;45.286;9.900;2023-02-18T16:58:08;15.60;;;11.30;;
47804;SDS011;33568;45.286;9.900;2023-02-18T17:03:01;13.07;;;9.53;;
47804;SDS011;33568;45.286;9.900;2023-02-18T17:05:31;19.25;;;10.80;;
47804;SDS011;33568;45.286;9.900;2023-02-18T17:10:41;13.75;;;9.55;;
47804;SDS011;33568;45.286;9.900;2023-02-18T17:13:11;16.15;;;9.73;;
47804;SDS011;33568;45.286;9.900;2023-02-18T17:15:39;22.77;;;13.68;;
47804;SDS011;33568;45.286;9.900;2023-02-18T17:18:07;37.70;;;17.05;;
47804;SDS011;33568;45.286;9.900;2023-02-18T17:20:34;30.73;;;14.55;;
47804;SDS011;33568;45.286;9.900;2023-02-18T17:25:37;18.73;;;10.18;;
47804;SDS011;33568;45.286;9.900;2023-02-18T17:28:05;16.00;;;9.80;;
47804;SDS011;33568;45.286;9.900;2023-02-18T17:30:37;13.27;;;9.75;;
47804;SDS011;33568;45.286;9.900;2023-02-18T17:33:05;10.88;;;7.80;;
47804;SDS011;33568;45.286;9.900;2023-02-18T17:35:33;15.98;;;8.48;;
47804;SDS011;33568;45.286;9.900;2023-02-18T17:40:26;16.02;;;8.65;;
47804;SDS011;33568;45.286;9.900;2023-02-18T17:42:54;12.75;;;7.70;;
47804;SDS011;33568;45.286;9.900;2023-02-18T17:47:59;12.57;;;8.88;;
47804;SDS011;33568;45.286;9.900;2023-02-18T17:50:26;22.00;;;13.77;;
47804;SDS011;33568;45.286;9.900;2023-02-18T17:52:54;17.73;;;12.15;;
47804;SDS011;33568;45.286;9.900;2023-02-18T17:55:25;25.98;;;16.25;;
47804;SDS011;33568;45.286;9.900;2023-02-18T17:57:53;27.55;;;18.35;;
47804;SDS011;33568;45.286;9.900;2023-02-18T18:02:51;30.55;;;21.90;;
47804;SDS011;33568;45.286;9.900;2023-02-18T18:05:19;23.73;;;15.25;;
47804;SDS011;33568;45.286;9.900;2023-02-18T18:07:48;16.85;;;11.80;;
47804;SDS011;33568;45.286;9.900;2023-02-18T18:10:15;17.40;;;14.13;;
47804;SDS011;33568;45.286;9.900;2023-02-18T18:12:43;16.77;;;11.30;;
47804;SDS011;33568;45.286;9.900;2023-02-18T18:18:01;17.10;;;13.45;;
47804;SDS011;33568;45.286;9.900;2023-02-18T18:20:28;39.92;;;22.08;;
47804;SDS011;33568;45.286;9.900;2023-02-18T18:22:57;48.63;;;32.10;;
47804;SDS011;33568;45.286;9.900;2023-02-18T18:25:46;60.05;;;41.47;;
47804;SDS011;33568;45.286;9.900;2023-02-18T18:28:13;56.90;;;34.45;;
47804;SDS011;33568;45.286;9.900;2023-02-18T18:30:41;33.88;;;25.10;;
47804;SDS011;33568;45.286;9.900;2023-02-18T18:33:16;26.10;;;19.10;;
47804;SDS011;33568;45.286;9.900;2023-02-18T18:35:51;23.33;;;18.38;;
47804;SDS011;33568;45.286;9.900;2023-02-18T18:38:20;23.15;;;17.10;;
47804;SDS011;33568;45.286;9.900;2023-02-18T18:40:47;31.48;;;20.60;;
47804;SDS011;33568;45.286;9.900;2023-02-18T18:43:16;28.67;;;20.92;;
47804;SDS011;33568;45.286;9.900;2023-02-18T18:45:43;28.90;;;19.98;;
47804;SDS011;33568;45.286;9.900;2023-02-18T18:48:09;22.73;;;14.75;;
47804;SDS011;33568;45.286;9.900;2023-02-18T18:55:32;17.48;;;12.50;;
47804;SDS011;33568;45.286;9.900;2023-02-18T18:58:00;24.38;;;12.00;;
47804;SDS011;33568;45.286;9.900;2023-02-18T19:00:38;18.15;;;14.88;;